sensor_id;sensor_type;location;lat;lon;timestamp;pressure;altitude;pressure_sealevel;temperature;humidity
75188;BME280;63762;51.334;22.108;2023-06-24T00:03:42;101655.20;;;20.55;70.93
75188;BME280;63762;51.334;22.108;2023-06-24T00:13:50;101658.93;;;20.20;71.38
75188;BME280;63762;51.334;22.108;2023-06-24T00:23:58;101690.98;;;19.93;71.78
75188;BME280;63762;51.334;22.108;2023-06-24T00:34:04;101711.20;;;19.82;72.01
75188;BME280;63762;51.334;22.108;2023-06-24T00:44:12;101738.14;;;19.77;72.34
75188;BME280;63762;51.334;22.108;2023-06-24T00:54:18;101739.75;;;19.70;72.00
75188;BME280;63762;51.334;22.108;2023-06-24T01:04:25;101749.73;;;19.61;72.01
75188;BME280;63762;51.334;22.108;2023-06-24T01:14:34;101756.98;;;19.53;71.44
75188;BME280;63762;51.334;22.108;2023-06-24T01:24:50;101764.09;;;19.46;71.58
75188;BME280;63762;51.334;22.108;2023-06-24T01:34:57;101759.47;;;19.29;71.45
75188;BME280;63762;51.334;22.108;2023-06-24T01:45:00;101763.67;;;19.14;71.84
75188;BME280;63762;51.334;22.108;2023-06-24T01:55:01;101745.59;;;19.13;71.83
75188;BME280;63762;51.334;22.108;2023-06-24T02:05:09;101763.26;;;19.09;71.57
75188;BME280;63762;51.334;22.108;2023-06-24T02:15:18;101782.05;;;19.12;71.31
75188;BME280;63762;51.334;22.108;2023-06-24T02:25:24;101781.06;;;19.13;70.95
75188;BME280;63762;51.334;22.108;2023-06-24T02:35:29;101788.44;;;19.03;70.94
75188;BME280;63762;51.334;22.108;2023-06-24T02:45:37;101794.18;;;19.00;70.45
75188;BME280;63762;51.334;22.108;2023-06-24T02:55:44;101814.55;;;18.96;70.28
75188;BME280;63762;51.334;22.108;2023-06-24T03:05:51;101826.05;;;18.99;70.61
75188;BME280;63762;51.334;22.108;2023-06-24T03:15:58;101831.45;;;19.09;70.98
75188;BME280;63762;51.334;22.108;2023-06-24T03:26:05;101840.00;;;19.23;70.13
75188;BME280;63762;51.334;22.108;2023-06-24T03:36:12;101839.24;;;19.04;69.95
75188;BME280;63762;51.334;22.108;2023-06-24T03:46:19;101827.56;;;18.75;70.43
75188;BME280;63762;51.334;22.108;2023-06-24T03:56:26;101856.84;;;18.73;70.46
75188;BME280;63762;51.334;22.108;2023-06-24T04:06:33;101856.55;;;18.76;70.37
75188;BME280;63762;51.334;22.108;2023-06-24T04:16:40;101859.16;;;18.68;70.69
75188;BME280;63762;51.334;22.108;2023-06-24T04:26:48;101876.93;;;18.72;71.71
75188;BME280;63762;51.334;22.108;2023-06-24T04:36:55;101894.35;;;19.07;70.44
75188;BME280;63762;51.334;22.108;2023-06-24T04:47:02;101902.37;;;19.18;69.00
75188;BME280;63762;51.334;22.108;2023-06-24T05:07:21;101914.73;;;19.59;67.91
75188;BME280;63762;51.334;22.108;2023-06-24T05:17:23;101915.15;;;19.64;67.90
75188;BME280;63762;51.334;22.108;2023-06-24T05:27:31;101927.48;;;19.68;67.81
75188;BME280;63762;51.334;22.108;2023-06-24T05:37:37;101931.71;;;19.80;66.85
75188;BME280;63762;51.334;22.108;2023-06-24T05:47:45;101939.91;;;20.07;65.76
75188;BME280;63762;51.334;22.108;2023-06-24T05:57:52;101932.24;;;20.38;66.95
75188;BME280;63762;51.334;22.108;2023-06-24T06:07:59;101934.57;;;20.68;64.68
75188;BME280;63762;51.334;22.108;2023-06-24T06:18:06;101939.30;;;20.83;64.77
75188;BME280;63762;51.334;22.108;2023-06-24T06:28:14;101937.23;;;21.20;63.63
75188;BME280;63762;51.334;22.108;2023-06-24T06:38:20;101931.93;;;21.19;64.08
75188;BME280;63762;51.334;22.108;2023-06-24T06:48:27;101944.70;;;21.10;64.68
75188;BME280;63762;51.334;22.108;2023-06-24T06:58:34;101945.81;;;21.00;65.15
75188;BME280;63762;51.334;22.108;2023-06-24T07:08:41;101948.23;;;21.28;63.75
75188;BME280;63762;51.334;22.108;2023-06-24T07:18:49;101944.91;;;22.10;62.38
75188;BME280;63762;51.334;22.108;2023-06-24T07:28:57;101943.64;;;22.54;60.13
75188;BME280;63762;51.334;22.108;2023-06-24T07:39:03;101948.48;;;22.84;57.78
75188;BME280;63762;51.334;22.108;2023-06-24T07:49:10;101945.02;;;23.14;57.66
75188;BME280;63762;51.334;22.108;2023-06-24T07:59:17;101953.55;;;23.51;57.93
75188;BME280;63762;51.334;22.108;2023-06-24T08:09:24;101973.45;;;23.61;55.74
75188;BME280;63762;51.334;22.108;2023-06-24T08:19:31;101989.58;;;23.64;54.12
75188;BME280;63762;51.334;22.108;2023-06-24T08:29:39;101998.17;;;23.61;50.51
75188;BME280;63762;51.334;22.108;2023-06-24T08:39:46;101995.60;;;23.67;49.11
75188;BME280;63762;51.334;22.108;2023-06-24T08:49:55;101984.55;;;23.83;49.96
75188;BME280;63762;51.334;22.108;2023-06-24T09:00:00;101988.80;;;24.02;51.23
75188;BME280;63762;51.334;22.108;2023-06-24T09:10:07;101986.41;;;24.60;50.06
75188;BME280;63762;51.334;22.108;2023-06-24T09:20:14;101981.43;;;25.09;48.77
75188;BME280;63762;51.334;22.108;2023-06-24T09:30:23;101974.90;;;25.24;47.44
75188;BME280;63762;51.334;22.108;2023-06-24T09:40:28;101987.98;;;25.22;46.89
75188;BME280;63762;51.334;22.108;2023-06-24T09:50:35;101999.20;;;25.43;46.28
75188;BME280;63762;51.334;22.108;2023-06-24T10:00:43;102008.02;;;25.39;45.20
75188;BME280;63762;51.334;22.108;2023-06-24T10:10:50;102008.46;;;25.79;44.14
75188;BME280;63762;51.334;22.108;2023-06-24T10:20:57;102019.29;;;25.66;42.59
75188;BME280;63762;51.334;22.108;2023-06-24T10:31:04;102019.66;;;25.63;43.59
75188;BME280;63762;51.334;22.108;2023-06-24T10:41:17;102011.37;;;25.49;43.97
75188;BME280;63762;51.334;22.108;2023-06-24T10:51:19;102007.10;;;25.24;42.89
75188;BME280;63762;51.334;22.108;2023-06-24T11:01:25;102002.45;;;25.24;44.72
75188;BME280;63762;51.334;22.108;2023-06-24T11:11:33;102012.28;;;25.04;47.52
75188;BME280;63762;51.334;22.108;2023-06-24T11:21:39;101993.91;;;24.97;45.56
75188;BME280;63762;51.334;22.108;2023-06-24T11:31:50;102005.44;;;25.00;46.08
75188;BME280;63762;51.334;22.108;2023-06-24T11:41:57;102006.45;;;24.99;45.15
75188;BME280;63762;51.334;22.108;2023-06-24T11:52:01;102005.06;;;25.03;47.32
75188;BME280;63762;51.334;22.108;2023-06-24T12:02:13;102003.15;;;25.04;49.48
75188;BME280;63762;51.334;22.108;2023-06-24T12:12:15;101998.70;;;25.03;50.58
75188;BME280;63762;51.334;22.108;2023-06-24T12:22:22;101998.82;;;24.87;51.33
75188;BME280;63762;51.334;22.108;2023-06-24T12:32:30;102005.49;;;24.70;51.67
75188;BME280;63762;51.334;22.108;2023-06-24T12:42:36;102010.82;;;24.63;52.06
75188;BME280;63762;51.334;22.108;2023-06-24T12:52:43;102014.47;;;24.25;52.76
75188;BME280;63762;51.334;22.108;2023-06-24T13:02:51;102014.88;;;24.14;55.78
75188;BME280;63762;51.334;22.108;2023-06-24T13:12:58;102027.70;;;23.75;56.81
75188;BME280;63762;51.334;22.108;2023-06-24T13:23:05;102042.63;;;23.80;59.74
75188;BME280;63762;51.334;22.108;2023-06-24T13:33:12;102044.20;;;23.75;55.66
75188;BME280;63762;51.334;22.108;2023-06-24T13:43:19;102049.34;;;23.78;55.23
75188;BME280;63762;51.334;22.108;2023-06-24T13:53:26;102048.65;;;23.76;54.37
75188;BME280;63762;51.334;22.108;2023-06-24T14:03:33;102041.45;;;23.75;54.44
75188;BME280;63762;51.334;22.108;2023-06-24T14:13:41;102038.66;;;23.83;54.11
75188;BME280;63762;51.334;22.108;2023-06-24T14:23:47;102025.55;;;24.09;52.74
75188;BME280;63762;51.334;22.108;2023-06-24T14:33:55;102043.37;;;24.29;50.67
75188;BME280;63762;51.334;22.108;2023-06-24T14:44:02;102038.27;;;24.10;50.74
75188;BME280;63762;51.334;22.108;2023-06-24T14:54:09;102039.01;;;23.88;53.00
75188;BME280;63762;51.334;22.108;2023-06-24T15:04:16;102038.84;;;23.81;53.36
75188;BME280;63762;51.334;22.108;2023-06-24T15:14:23;102035.98;;;23.51;53.07
75188;BME280;63762;51.334;22.108;2023-06-24T15:24:30;102045.45;;;23.32;54.66
75188;BME280;63762;51.334;22.108;2023-06-24T15:34:38;102044.76;;;23.14;56.07
75188;BME280;63762;51.334;22.108;2023-06-24T15:44:44;102053.13;;;22.89;55.92
75188;BME280;63762;51.334;22.108;2023-06-24T15:54:52;102053.62;;;22.84;56.32
75188;BME280;63762;51.334;22.108;2023-06-24T16:04:59;102055.49;;;22.76;56.43
75188;BME280;63762;51.334;22.108;2023-06-24T16:15:06;102050.21;;;22.82;57.20
75188;BME280;63762;51.334;22.108;2023-06-24T16:25:13;102048.80;;;22.78;56.67
75188;BME280;63762;51.334;22.108;2023-06-24T16:35:21;102043.48;;;22.77;56.80
75188;BME280;63762;51.334;22.108;2023-06-24T16:45:27;102052.05;;;22.74;56.53
75188;BME280;63762;51.334;22.108;2023-06-24T16:55:34;102045.86;;;22.64;55.36
75188;BME280;63762;51.334;22.108;2023-06-24T17:05:41;102048.59;;;22.56;54.19
75188;BME280;63762;51.334;22.108;2023-06-24T17:18:58;102041.48;;;22.37;54.09
75188;BME280;63762;51.334;22.108;2023-06-24T17:29:05;102040.22;;;22.24;54.77
75188;BME280;63762;51.334;22.108;2023-06-24T17:39:13;102039.83;;;22.11;55.82
75188;BME280;63762;51.334;22.108;2023-06-24T17:49:19;102030.33;;;21.97;57.60
75188;BME280;63762;51.334;22.108;2023-06-24T17:59:26;102039.37;;;21.89;58.99
75188;BME280;63762;51.334;22.108;2023-06-24T18:09:34;102067.79;;;21.63;58.30
75188;BME280;63762;51.334;22.108;2023-06-24T18:19:41;102066.53;;;21.57;59.07
75188;BME280;63762;51.334;22.108;2023-06-24T18:29:48;102084.02;;;21.39;58.42
75188;BME280;63762;51.334;22.108;2023-06-24T18:39:55;102083.36;;;21.19;58.30
75188;BME280;63762;51.334;22.108;2023-06-24T18:50:02;102093.06;;;20.96;57.76
75188;BME280;63762;51.334;22.108;2023-06-24T19:00:10;102105.17;;;20.67;58.49
75188;BME280;63762;51.334;22.108;2023-06-24T19:10:16;102096.51;;;20.44;59.00
75188;BME280;63762;51.334;22.108;2023-06-24T19:20:23;102107.75;;;20.41;59.54
75188;BME280;63762;51.334;22.108;2023-06-24T19:30:30;102100.63;;;20.31;60.36
75188;BME280;63762;51.334;22.108;2023-06-24T19:40:38;102095.05;;;20.23;60.77
75188;BME280;63762;51.334;22.108;2023-06-24T19:50:45;102099.87;;;20.02;60.42
75188;BME280;63762;51.334;22.108;2023-06-24T20:00:52;102089.48;;;20.05;61.84
75188;BME280;63762;51.334;22.108;2023-06-24T20:10:59;102092.93;;;20.07;63.30
75188;BME280;63762;51.334;22.108;2023-06-24T20:21:06;102089.77;;;20.02;64.51
75188;BME280;63762;51.334;22.108;2023-06-24T20:31:13;102096.75;;;19.87;65.12
75188;BME280;63762;51.334;22.108;2023-06-24T20:41:24;102077.91;;;19.84;66.66
75188;BME280;63762;51.334;22.108;2023-06-24T20:51:30;102074.37;;;19.74;65.67
75188;BME280;63762;51.334;22.108;2023-06-24T21:01:35;102086.75;;;19.59;65.49
75188;BME280;63762;51.334;22.108;2023-06-24T21:11:42;102078.41;;;19.51;65.59
75188;BME280;63762;51.334;22.108;2023-06-24T21:21:49;102074.15;;;19.29;65.33
75188;BME280;63762;51.334;22.108;2023-06-24T21:31:56;102089.64;;;19.10;65.48
75188;BME280;63762;51.334;22.108;2023-06-24T21:42:04;102082.75;;;18.87;66.26
75188;BME280;63762;51.334;22.108;2023-06-24T21:52:10;102073.67;;;18.67;66.86
75188;BME280;63762;51.334;22.108;2023-06-24T22:02:18;102075.80;;;18.64;66.04
75188;BME280;63762;51.334;22.108;2023-06-24T22:12:24;102082.73;;;18.68;65.43
75188;BME280;63762;51.334;22.108;2023-06-24T22:22:31;102081.24;;;18.45;64.79
75188;BME280;63762;51.334;22.108;2023-06-24T22:32:39;102079.66;;;18.12;66.29
75188;BME280;63762;51.334;22.108;2023-06-24T22:42:46;102071.24;;;17.85;67.29
75188;BME280;63762;51.334;22.108;2023-06-24T22:52:53;102081.76;;;17.69;68.17
75188;BME280;63762;51.334;22.108;2023-06-24T23:03:00;102074.79;;;17.55;69.00
75188;BME280;63762;51.334;22.108;2023-06-24T23:13:08;102059.34;;;17.56;69.58
75188;BME280;63762;51.334;22.108;2023-06-24T23:23:15;102046.97;;;17.52;70.25
75188;BME280;63762;51.334;22.108;2023-06-24T23:33:22;102045.86;;;17.54;69.99
75188;BME280;63762;51.334;22.108;2023-06-24T23:43:29;102041.13;;;17.56;69.90
75188;BME280;63762;51.334;22.108;2023-06-24T23:53:36;102036.70;;;17.55;70.19
